createdAt,value
2017-08-23T00:01:50.882Z,95.40
2017-08-23T00:04:16.930Z,95.70
2017-08-23T00:06:43.001Z,96.30
2017-08-23T00:09:09.080Z,96.50
2017-08-23T00:11:35.167Z,96.50
2017-08-23T00:14:01.268Z,96.70
2017-08-23T00:16:27.387Z,96.70
2017-08-23T00:18:53.439Z,96.90
2017-08-23T00:21:19.508Z,97.20
2017-08-23T00:23:45.586Z,97.00
2017-08-23T00:26:11.659Z,97.10
2017-08-23T00:28:37.767Z,96.90
2017-08-23T00:31:03.853Z,96.60
2017-08-23T00:33:29.934Z,96.60
2017-08-23T00:35:55.997Z,97.10
2017-08-23T00:38:22.098Z,96.80
2017-08-23T00:40:48.159Z,96.80
2017-08-23T00:43:14.216Z,96.80
2017-08-23T00:45:40.302Z,96.60
2017-08-23T00:48:06.383Z,96.40
2017-08-23T00:50:32.471Z,96.30
2017-08-23T00:52:58.547Z,96.30
2017-08-23T00:55:24.646Z,96.10
2017-08-23T00:57:50.729Z,96.00
2017-08-23T01:00:16.859Z,96.10
2017-08-23T01:02:42.938Z,96.10
2017-08-23T01:05:09.051Z,96.20
2017-08-23T01:07:35.133Z,96.30
2017-08-23T01:10:01.195Z,96.30
2017-08-23T01:12:27.283Z,96.40
2017-08-23T01:14:53.342Z,96.40
2017-08-23T01:17:19.465Z,96.50
2017-08-23T01:19:45.530Z,96.60
2017-08-23T01:22:11.619Z,96.40
2017-08-23T01:24:37.683Z,96.60
2017-08-23T01:27:03.770Z,96.60
2017-08-23T01:29:29.851Z,96.70
2017-08-23T01:31:56.002Z,96.60
2017-08-23T01:34:22.059Z,96.50
2017-08-23T01:36:48.140Z,96.20
2017-08-23T01:39:14.190Z,96.20
2017-08-23T01:41:40.286Z,96.10
2017-08-23T01:44:06.355Z,96.20
2017-08-23T01:46:32.418Z,96.30
2017-08-23T01:48:58.519Z,96.50
2017-08-23T01:51:24.590Z,96.40
2017-08-23T01:53:50.683Z,96.30
2017-08-23T01:56:16.742Z,96.30
2017-08-23T01:58:42.835Z,96.10
2017-08-23T02:01:08.907Z,96.40
2017-08-23T02:03:34.974Z,96.50
2017-08-23T02:06:01.047Z,96.60
2017-08-23T02:08:27.127Z,96.60
2017-08-23T02:10:53.178Z,96.60
2017-08-23T02:13:19.262Z,96.50
2017-08-23T02:15:45.363Z,96.40
2017-08-23T02:18:11.506Z,96.40
2017-08-23T02:20:37.567Z,96.40
2017-08-23T02:23:03.654Z,96.20
2017-08-23T02:25:29.786Z,96.10
2017-08-23T02:27:55.893Z,96.20
2017-08-23T02:30:21.941Z,96.30
2017-08-23T02:32:47.991Z,96.20
2017-08-23T02:35:14.144Z,96.10
2017-08-23T02:37:40.281Z,96.20
2017-08-23T02:40:06.334Z,96.10
2017-08-23T02:42:32.438Z,95.90
2017-08-23T02:44:58.536Z,95.70
2017-08-23T02:47:24.593Z,95.90
2017-08-23T02:49:50.750Z,95.80
2017-08-23T02:52:16.826Z,95.80
2017-08-23T02:54:42.926Z,96.00
2017-08-23T02:57:09.052Z,95.70
2017-08-23T02:59:35.174Z,95.70
2017-08-23T03:02:01.251Z,95.40
2017-08-23T03:04:27.314Z,95.60
2017-08-23T03:06:53.382Z,95.60
2017-08-23T03:09:19.482Z,95.40
2017-08-23T03:11:45.566Z,95.40
2017-08-23T03:14:11.677Z,95.50
2017-08-23T03:16:37.735Z,95.50
2017-08-23T03:19:03.823Z,95.70
2017-08-23T03:21:29.903Z,95.60
2017-08-23T03:23:55.990Z,95.50
2017-08-23T03:26:22.066Z,95.50
2017-08-23T03:28:48.145Z,95.40
2017-08-23T03:31:14.214Z,95.80
2017-08-23T03:33:40.289Z,95.30
2017-08-23T03:36:06.374Z,95.30
2017-08-23T03:38:32.466Z,95.50
2017-08-23T03:40:58.534Z,95.90
2017-08-23T03:43:24.590Z,96.10
2017-08-23T03:45:50.671Z,96.20
2017-08-23T03:48:16.723Z,96.20
2017-08-23T03:50:42.794Z,96.20
2017-08-23T03:53:08.938Z,96.10
2017-08-23T03:55:35.019Z,95.90
2017-08-23T03:58:01.086Z,95.70
2017-08-23T04:00:27.166Z,95.70
2017-08-23T04:02:53.233Z,95.80
2017-08-23T04:05:20.917Z,95.90
2017-08-23T04:07:46.970Z,95.70
2017-08-23T04:10:13.078Z,95.80
2017-08-23T04:12:39.183Z,95.70
2017-08-23T04:15:05.270Z,95.60
2017-08-23T04:17:31.366Z,95.60
2017-08-23T04:19:57.442Z,95.70
2017-08-23T04:22:23.518Z,95.60
2017-08-23T04:24:49.598Z,95.60
2017-08-23T04:27:15.677Z,95.50
2017-08-23T04:29:41.743Z,95.30
2017-08-23T04:32:07.846Z,95.40
2017-08-23T04:34:33.906Z,95.50
2017-08-23T04:37:00.009Z,95.80
2017-08-23T04:39:26.069Z,96.30
2017-08-23T04:41:52.162Z,96.50
2017-08-23T04:44:18.238Z,96.60
2017-08-23T04:46:44.299Z,96.70
2017-08-23T04:49:10.373Z,96.60
2017-08-23T04:51:38.043Z,96.60
2017-08-23T04:54:04.169Z,96.50
2017-08-23T04:56:31.040Z,96.50
2017-08-23T04:58:57.114Z,96.30
2017-08-23T05:01:23.178Z,96.00
2017-08-23T05:03:49.255Z,96.10
2017-08-23T05:06:15.326Z,96.30
2017-08-23T05:08:41.422Z,96.20
2017-08-23T05:11:07.508Z,96.10
2017-08-23T05:13:34.321Z,96.30
2017-08-23T05:16:00.432Z,96.30
2017-08-23T05:18:26.526Z,96.40
2017-08-23T05:20:52.707Z,96.80
2017-08-23T05:23:18.786Z,96.90
2017-08-23T05:25:44.923Z,96.90
2017-08-23T05:28:10.978Z,96.70
2017-08-23T05:30:37.162Z,96.80
2017-08-23T05:33:03.225Z,97.20
2017-08-23T05:35:29.310Z,97.40
2017-08-23T05:37:55.366Z,97.40
2017-08-23T05:40:21.459Z,97.70
2017-08-23T05:42:47.522Z,97.90
2017-08-23T05:45:13.598Z,97.90
2017-08-23T05:47:39.667Z,97.80
2017-08-23T05:50:05.757Z,98.10
2017-08-23T05:52:31.820Z,98.10
2017-08-23T05:54:57.914Z,98.20
2017-08-23T05:57:23.972Z,98.20
2017-08-23T05:59:50.041Z,98.30
2017-08-23T06:02:16.107Z,98.30
2017-08-23T06:04:42.442Z,98.20
2017-08-23T06:07:08.573Z,98.30
2017-08-23T06:09:34.630Z,98.50
2017-08-23T06:12:00.720Z,97.90
2017-08-23T06:14:26.807Z,97.80
2017-08-23T06:16:52.862Z,97.50
2017-08-23T06:19:18.918Z,97.60
2017-08-23T06:21:44.991Z,97.70
2017-08-23T06:24:11.041Z,97.80
2017-08-23T06:26:37.138Z,97.50
2017-08-23T06:29:03.189Z,97.60
2017-08-23T06:31:29.263Z,97.50
2017-08-23T06:33:55.330Z,97.40
2017-08-23T06:36:21.442Z,97.20
2017-08-23T06:38:47.510Z,97.30
2017-08-23T06:41:13.563Z,96.80
2017-08-23T06:43:39.648Z,97.10
2017-08-23T06:46:05.748Z,96.90
2017-08-23T06:48:31.835Z,97.10
2017-08-23T06:50:57.897Z,97.20
2017-08-23T06:53:23.975Z,97.10
2017-08-23T06:55:50.042Z,96.90
2017-08-23T06:58:16.140Z,97.10
2017-08-23T07:00:42.276Z,96.70
2017-08-23T07:03:08.347Z,96.40
2017-08-23T07:05:34.419Z,96.80
2017-08-23T07:08:00.506Z,96.30
2017-08-23T07:10:26.589Z,95.80
2017-08-23T07:12:52.686Z,95.70
2017-08-23T07:15:18.746Z,95.30
2017-08-23T07:17:44.807Z,95.30
2017-08-23T07:20:10.870Z,95.20
2017-08-23T07:22:36.918Z,95.20
2017-08-23T07:25:03.046Z,95.30
2017-08-23T07:27:29.113Z,94.50
2017-08-23T07:29:55.195Z,94.60
2017-08-23T07:32:21.258Z,94.50
2017-08-23T07:34:47.325Z,94.40
2017-08-23T07:37:13.378Z,94.10
2017-08-23T07:39:39.459Z,94.10
2017-08-23T07:42:05.523Z,93.90
2017-08-23T07:44:31.597Z,93.40
2017-08-23T07:46:57.658Z,93.40
2017-08-23T07:49:23.717Z,93.70
2017-08-23T07:51:49.786Z,93.00
2017-08-23T07:54:16.243Z,93.10
2017-08-23T07:56:42.367Z,92.60
2017-08-23T07:59:08.419Z,92.40
2017-08-23T08:01:34.504Z,92.20
2017-08-23T08:04:00.549Z,92.40
2017-08-23T08:06:26.614Z,92.70
2017-08-23T08:08:52.662Z,92.60
2017-08-23T08:11:18.734Z,92.00
2017-08-23T08:13:44.931Z,92.20
2017-08-23T08:16:11.007Z,92.20
2017-08-23T08:18:37.058Z,91.90
2017-08-23T08:21:03.178Z,91.70
2017-08-23T08:23:29.230Z,91.30
2017-08-23T08:25:55.313Z,91.00
2017-08-23T08:28:21.366Z,90.80
2017-08-23T08:30:47.432Z,90.90
2017-08-23T08:33:13.482Z,90.70
2017-08-23T08:35:39.571Z,90.30
2017-08-23T08:38:05.610Z,90.70
2017-08-23T08:40:31.666Z,90.80
2017-08-23T08:42:57.739Z,90.80
2017-08-23T08:45:23.794Z,89.70
2017-08-23T08:47:49.890Z,90.40
2017-08-23T08:50:15.966Z,89.00
2017-08-23T08:52:42.027Z,89.40
2017-08-23T08:55:08.091Z,88.90
2017-08-23T08:57:34.157Z,87.70
2017-08-23T09:00:00.258Z,87.00
2017-08-23T09:02:27.063Z,83.80
2017-08-23T09:04:53.154Z,83.80
2017-08-23T09:07:19.225Z,84.20
2017-08-23T09:09:45.270Z,85.60
2017-08-23T09:12:11.338Z,81.30
2017-08-23T09:14:37.414Z,80.90
2017-08-23T09:17:03.522Z,77.90
2017-08-23T09:19:29.563Z,78.20
2017-08-23T09:21:55.670Z,78.80
2017-08-23T09:24:21.724Z,79.10
2017-08-23T09:26:47.835Z,78.90
2017-08-23T09:29:13.891Z,79.20
2017-08-23T09:31:39.938Z,77.80
2017-08-23T09:34:05.998Z,79.30
2017-08-23T09:36:32.042Z,78.00
2017-08-23T09:38:58.126Z,78.10
2017-08-23T09:41:24.236Z,77.20
2017-08-23T09:43:50.325Z,77.00
2017-08-23T09:46:16.370Z,76.30
2017-08-23T09:48:42.434Z,75.90
2017-08-23T09:51:08.646Z,76.80
2017-08-23T09:53:35.110Z,73.30
2017-08-23T09:56:01.189Z,74.50
2017-08-23T09:58:27.250Z,73.30
2017-08-23T10:00:53.298Z,72.90
2017-08-23T10:03:19.363Z,74.00
2017-08-23T10:05:45.423Z,74.40
2017-08-23T10:08:11.489Z,73.40
2017-08-23T10:10:37.538Z,73.20
2017-08-23T10:13:03.655Z,74.60
2017-08-23T10:15:29.704Z,74.90
2017-08-23T10:17:55.762Z,70.90
2017-08-23T10:20:21.830Z,72.50
2017-08-23T10:22:47.927Z,69.70
2017-08-23T10:25:14.010Z,73.60
2017-08-23T10:27:40.067Z,71.80
2017-08-23T10:30:06.138Z,69.90
2017-08-23T10:32:32.190Z,70.20
2017-08-23T10:34:58.264Z,69.90
2017-08-23T10:37:24.305Z,69.40
2017-08-23T10:39:50.377Z,67.40
2017-08-23T10:42:16.423Z,67.80
2017-08-23T10:44:42.498Z,66.90
2017-08-23T10:47:08.567Z,67.90
2017-08-23T10:49:34.626Z,68.60
2017-08-23T10:52:00.682Z,66.00
2017-08-23T10:54:26.750Z,63.20
2017-08-23T10:56:53.541Z,65.10
2017-08-23T10:59:19.604Z,65.10
2017-08-23T11:01:45.662Z,68.00
2017-08-23T11:04:11.726Z,65.00
2017-08-23T11:06:37.781Z,64.10
2017-08-23T11:09:03.862Z,64.60
2017-08-23T11:11:29.922Z,66.60
2017-08-23T11:13:55.990Z,64.30
2017-08-23T11:16:22.057Z,63.70
2017-08-23T11:18:48.114Z,65.30
2017-08-23T11:21:14.162Z,64.50
2017-08-23T11:23:40.229Z,64.10
2017-08-23T11:26:06.303Z,64.00
2017-08-23T11:28:32.365Z,64.60
2017-08-23T11:30:58.435Z,66.00
2017-08-23T11:33:24.526Z,64.90
2017-08-23T11:35:50.581Z,64.50
2017-08-23T11:38:16.642Z,65.70
2017-08-23T11:40:42.706Z,64.00
2017-08-23T11:43:08.766Z,64.20
2017-08-23T11:45:34.865Z,62.90
2017-08-23T11:48:00.906Z,63.10
2017-08-23T11:50:26.972Z,63.00
2017-08-23T11:52:53.022Z,63.40
2017-08-23T11:55:19.082Z,63.80
2017-08-23T11:57:45.126Z,61.10
2017-08-23T12:00:11.270Z,62.20
2017-08-23T12:02:37.323Z,64.40
2017-08-23T12:05:03.374Z,62.00
2017-08-23T12:07:30.193Z,59.80
2017-08-23T12:09:56.287Z,59.70
2017-08-23T12:12:22.335Z,58.60
2017-08-23T12:14:48.408Z,61.80
2017-08-23T12:17:14.499Z,60.10
2017-08-23T12:19:40.557Z,60.50
2017-08-23T12:22:06.716Z,60.40
2017-08-23T12:24:32.790Z,59.00
2017-08-23T12:26:58.860Z,59.50
2017-08-23T12:29:24.917Z,59.90
2017-08-23T12:31:50.986Z,60.00
2017-08-23T12:34:17.044Z,58.90
2017-08-23T12:36:43.114Z,56.70
2017-08-23T12:39:09.219Z,56.20
2017-08-23T12:41:35.933Z,55.80
2017-08-23T12:44:01.990Z,51.70
2017-08-23T12:46:28.061Z,47.60
2017-08-23T12:48:54.145Z,45.00
2017-08-23T12:51:20.207Z,40.30
2017-08-23T12:53:46.276Z,39.10
2017-08-23T12:56:12.342Z,38.10
2017-08-23T12:58:38.402Z,37.30
2017-08-23T13:01:04.489Z,36.90
2017-08-23T13:03:30.559Z,34.10
2017-08-23T13:06:03.538Z,33.60
2017-08-23T13:08:29.594Z,33.70
2017-08-23T13:10:55.671Z,33.10
2017-08-23T13:13:21.747Z,33.00
2017-08-23T13:15:47.842Z,32.20
2017-08-23T13:18:13.917Z,31.20
2017-08-23T13:20:40.044Z,30.90
2017-08-23T13:23:06.082Z,29.20
2017-08-23T13:25:32.146Z,30.20
2017-08-23T13:27:58.330Z,31.00
2017-08-23T13:30:24.394Z,31.90
2017-08-23T13:32:50.460Z,31.50
2017-08-23T13:35:16.526Z,31.30
2017-08-23T13:37:42.590Z,30.70
2017-08-23T13:40:08.638Z,32.70
2017-08-23T13:42:34.726Z,31.10
2017-08-23T13:45:00.778Z,30.60
2017-08-23T13:47:26.851Z,30.50
2017-08-23T13:49:52.899Z,30.60
2017-08-23T13:52:18.974Z,29.60
2017-08-23T13:54:45.027Z,31.20
2017-08-23T13:57:11.118Z,30.00
2017-08-23T13:59:37.162Z,29.00
2017-08-23T14:02:03.234Z,30.00
2017-08-23T14:04:29.285Z,29.10
2017-08-23T14:06:55.357Z,29.50
2017-08-23T14:11:54.190Z,30.50
2017-08-23T14:14:20.259Z,31.40
2017-08-23T14:16:46.326Z,30.90
2017-08-23T14:19:12.374Z,31.80
2017-08-23T14:21:38.441Z,30.70
2017-08-23T14:24:04.522Z,33.60
2017-08-23T14:26:30.562Z,31.00
2017-08-23T14:28:56.627Z,31.70
2017-08-23T14:31:24.334Z,30.90
2017-08-23T14:33:50.393Z,30.70
2017-08-23T14:36:16.442Z,30.30
2017-08-23T14:38:42.514Z,29.00
2017-08-23T14:41:08.558Z,29.40
2017-08-23T14:43:34.634Z,29.30
2017-08-23T14:46:00.721Z,29.80
2017-08-23T14:48:26.794Z,30.80
2017-08-23T14:50:52.850Z,30.30
2017-08-23T14:53:19.022Z,29.00
2017-08-23T14:55:45.078Z,28.30
2017-08-23T14:58:11.134Z,28.50
2017-08-23T15:00:37.198Z,28.50
2017-08-23T15:03:03.267Z,28.90
2017-08-23T15:05:29.386Z,29.10
2017-08-23T15:07:55.430Z,30.00
2017-08-23T15:10:21.519Z,29.00
2017-08-23T15:12:47.566Z,28.60
2017-08-23T15:15:13.640Z,28.10
2017-08-23T15:17:39.689Z,28.10
2017-08-23T15:20:06.569Z,27.20
2017-08-23T15:22:32.615Z,27.50
2017-08-23T15:24:59.042Z,27.30
2017-08-23T15:27:25.107Z,28.30
2017-08-23T15:29:51.150Z,27.20
2017-08-23T15:32:17.218Z,27.40
2017-08-23T15:34:43.277Z,27.60
2017-08-23T15:37:09.434Z,28.00
2017-08-23T15:39:35.477Z,28.10
2017-08-23T15:42:01.537Z,27.30
2017-08-23T15:44:27.578Z,26.40
2017-08-23T15:46:53.652Z,27.70
2017-08-23T15:49:19.708Z,27.10
2017-08-23T15:51:45.774Z,27.10
2017-08-23T15:54:11.839Z,28.40
2017-08-23T15:56:38.012Z,27.90
2017-08-23T15:59:04.062Z,28.40
2017-08-23T16:01:30.122Z,28.50
2017-08-23T16:03:56.185Z,29.20
2017-08-23T16:06:22.246Z,29.70
2017-08-23T16:08:48.323Z,29.30
2017-08-23T16:11:14.405Z,29.80
2017-08-23T16:13:40.469Z,29.90
2017-08-23T16:16:06.530Z,30.00
2017-08-23T16:18:32.602Z,30.10
2017-08-23T16:20:58.663Z,29.80
2017-08-23T16:23:24.829Z,29.80
2017-08-23T16:25:50.878Z,29.90
2017-08-23T16:28:16.926Z,30.20
2017-08-23T16:30:42.994Z,32.10
2017-08-23T16:33:09.056Z,30.40
2017-08-23T16:35:35.126Z,31.50
2017-08-23T16:38:01.180Z,31.70
2017-08-23T16:40:27.250Z,31.50
2017-08-23T16:42:53.300Z,33.30
2017-08-23T16:45:19.389Z,33.50
2017-08-23T16:47:45.461Z,32.90
2017-08-23T16:50:11.533Z,32.50
2017-08-23T16:52:37.610Z,33.10
2017-08-23T16:55:03.669Z,33.80
2017-08-23T16:57:29.784Z,34.80
2017-08-23T16:59:56.209Z,34.90
2017-08-23T17:02:22.262Z,35.40
2017-08-23T17:04:48.322Z,35.90
2017-08-23T17:07:15.132Z,36.60
2017-08-23T17:09:41.186Z,36.60
2017-08-23T17:12:07.263Z,37.10
2017-08-23T17:14:33.314Z,38.60
2017-08-23T17:16:59.382Z,39.30
2017-08-23T17:19:25.423Z,40.60
2017-08-23T17:21:51.486Z,40.50
2017-08-23T17:24:18.184Z,40.30
2017-08-23T17:26:44.261Z,40.10
2017-08-23T17:29:10.378Z,40.80
2017-08-23T17:31:36.831Z,41.20
2017-08-23T17:34:02.878Z,42.40
2017-08-23T17:36:29.222Z,44.00
2017-08-23T17:38:55.270Z,45.80
2017-08-23T17:41:21.354Z,46.60
2017-08-23T17:43:47.446Z,47.00
2017-08-23T17:46:13.532Z,48.40
2017-08-23T17:48:39.595Z,49.70
2017-08-23T17:51:05.646Z,50.30
2017-08-23T17:53:31.710Z,50.80
2017-08-23T17:55:57.786Z,51.80
2017-08-23T17:58:23.860Z,52.50
2017-08-23T18:00:49.930Z,53.40
2017-08-23T18:03:16.199Z,54.10
2017-08-23T18:05:42.246Z,54.20
2017-08-23T18:08:08.301Z,55.40
2017-08-23T18:10:34.401Z,55.20
2017-08-23T18:13:00.518Z,55.60
2017-08-23T18:15:26.588Z,56.40
2017-08-23T18:17:52.644Z,57.20
2017-08-23T18:20:18.719Z,57.70
2017-08-23T18:22:44.772Z,58.70
2017-08-23T18:25:10.880Z,59.80
2017-08-23T18:27:36.934Z,60.60
2017-08-23T18:30:03.022Z,61.40
2017-08-23T18:32:29.073Z,62.70
2017-08-23T18:34:55.238Z,63.50
2017-08-23T18:37:21.286Z,63.80
2017-08-23T18:39:47.341Z,64.10
2017-08-23T18:42:13.414Z,65.10
2017-08-23T18:44:39.461Z,65.50
2017-08-23T18:47:05.527Z,65.80
2017-08-23T18:49:31.629Z,66.90
2017-08-23T18:51:57.697Z,67.10
2017-08-23T18:54:23.762Z,67.60
2017-08-23T18:56:49.842Z,68.10
2017-08-23T18:59:15.902Z,68.60
2017-08-23T19:01:41.968Z,69.30
2017-08-23T19:04:08.052Z,69.50
2017-08-23T19:06:34.106Z,70.20
2017-08-23T19:09:00.195Z,70.70
2017-08-23T19:11:26.268Z,71.10
2017-08-23T19:13:52.427Z,71.50
2017-08-23T19:16:18.493Z,71.90
2017-08-23T19:18:44.578Z,72.10
2017-08-23T19:21:10.650Z,72.40
2017-08-23T19:23:36.709Z,73.30
2017-08-23T19:26:02.778Z,73.50
2017-08-23T19:28:28.843Z,73.80
2017-08-23T19:30:54.957Z,74.20
2017-08-23T19:33:21.001Z,74.50
2017-08-23T19:35:47.094Z,74.80
2017-08-23T19:38:13.149Z,75.00
2017-08-23T19:40:39.487Z,75.70
2017-08-23T19:43:05.541Z,76.10
2017-08-23T19:45:31.589Z,76.30
2017-08-23T19:47:57.722Z,76.90
2017-08-23T19:50:23.791Z,76.80
2017-08-23T19:52:49.896Z,77.50
2017-08-23T19:55:15.943Z,77.50
2017-08-23T19:57:42.014Z,77.70
2017-08-23T20:00:08.134Z,77.90
2017-08-23T20:02:34.233Z,78.40
2017-08-23T20:05:00.322Z,79.20
2017-08-23T20:07:26.386Z,78.80
2017-08-23T20:09:52.510Z,79.20
2017-08-23T20:12:18.598Z,79.40
2017-08-23T20:14:44.655Z,80.00
2017-08-23T20:17:10.721Z,79.60
2017-08-23T20:19:36.782Z,79.70
2017-08-23T20:22:02.998Z,80.10
2017-08-23T20:24:29.045Z,80.20
2017-08-23T20:26:55.163Z,80.40
2017-08-23T20:29:21.502Z,80.60
2017-08-23T20:31:47.550Z,80.80
2017-08-23T20:34:13.622Z,80.70
2017-08-23T20:36:39.671Z,80.90
2017-08-23T20:39:05.763Z,81.20
2017-08-23T20:41:31.816Z,81.20
2017-08-23T20:43:57.897Z,81.40
2017-08-23T20:46:23.970Z,81.30
2017-08-23T20:48:50.071Z,81.70
2017-08-23T20:51:16.130Z,81.50
2017-08-23T20:53:42.438Z,81.70
2017-08-23T20:56:08.480Z,81.50
2017-08-23T20:58:34.553Z,81.60
2017-08-23T21:01:00.638Z,82.00
2017-08-23T21:03:26.682Z,82.00
2017-08-23T21:05:52.770Z,82.10
2017-08-23T21:08:18.826Z,82.00
2017-08-23T21:10:44.914Z,82.20
2017-08-23T21:13:10.965Z,82.30
2017-08-23T21:15:37.034Z,82.70
2017-08-23T21:18:03.117Z,82.70
2017-08-23T21:20:29.282Z,82.90
2017-08-23T21:22:55.326Z,83.30
2017-08-23T21:25:21.366Z,83.40
2017-08-23T21:27:47.433Z,83.30
2017-08-23T21:30:13.535Z,83.50
2017-08-23T21:32:39.599Z,83.90
2017-08-23T21:35:05.645Z,83.60
2017-08-23T21:37:31.705Z,83.80
2017-08-23T21:39:57.789Z,83.90
2017-08-23T21:42:23.858Z,83.90
2017-08-23T21:44:49.906Z,84.10
2017-08-23T21:47:15.979Z,84.30
2017-08-23T21:49:42.025Z,84.40
2017-08-23T21:52:08.095Z,84.40
2017-08-23T21:54:34.187Z,84.60
2017-08-23T21:57:00.237Z,84.80
2017-08-23T21:59:26.302Z,84.70
2017-08-23T22:01:52.358Z,85.20
2017-08-23T22:04:18.439Z,85.10
2017-08-23T22:06:44.486Z,85.30
2017-08-23T22:09:10.577Z,85.40
2017-08-23T22:11:36.694Z,85.50
2017-08-23T22:14:02.773Z,85.40
2017-08-23T22:16:28.838Z,85.60
2017-08-23T22:18:54.951Z,86.20
2017-08-23T22:21:21.007Z,85.60
2017-08-23T22:23:47.262Z,85.90
2017-08-23T22:28:49.118Z,85.80
2017-08-23T22:31:15.166Z,86.00
2017-08-23T22:33:41.216Z,86.40
2017-08-23T22:36:07.306Z,86.40
2017-08-23T22:38:33.426Z,86.50
2017-08-23T22:40:59.496Z,86.70
2017-08-23T22:43:25.542Z,86.90
2017-08-23T22:45:51.619Z,87.10
2017-08-23T22:48:17.670Z,87.10
2017-08-23T22:50:43.735Z,87.40
2017-08-23T22:53:09.805Z,87.50
2017-08-23T22:55:35.986Z,87.40
2017-08-23T22:58:02.030Z,87.20
2017-08-23T23:00:28.071Z,87.50
2017-08-23T23:02:54.135Z,87.30
2017-08-23T23:05:21.108Z,87.40
2017-08-23T23:07:47.170Z,87.90
2017-08-23T23:10:13.226Z,87.40
2017-08-23T23:12:39.302Z,87.40
2017-08-23T23:15:05.346Z,87.50
2017-08-23T23:17:31.430Z,87.10
2017-08-23T23:19:57.542Z,87.00
2017-08-23T23:22:23.606Z,87.10
2017-08-23T23:24:49.667Z,87.30
2017-08-23T23:27:15.890Z,87.30
2017-08-23T23:29:41.945Z,87.30
2017-08-23T23:32:07.999Z,87.30
2017-08-23T23:34:34.073Z,87.60
2017-08-23T23:37:00.113Z,87.30
2017-08-23T23:39:26.183Z,87.50
2017-08-23T23:41:52.263Z,87.40
2017-08-23T23:44:18.350Z,87.50
2017-08-23T23:46:44.400Z,87.50
2017-08-23T23:49:10.467Z,87.60
2017-08-23T23:51:36.514Z,87.80
2017-08-23T23:54:02.602Z,87.70
2017-08-23T23:56:28.648Z,87.20
2017-08-23T23:58:54.870Z,87.10
